Time;durP1;ratioP1;P1;durP2;ratioP2;P2;SDS_P1;SDS_P2;PMS_P1;PMS_P2;Temp;Humidity;BMP_temperature;BMP_pressure;BME280_temperature;BME280_humidity;BME280_pressure;Samples;Min_cycle;Max_cycle;Signal;HPM_P1;HPM_P2
2023/03/07 00:00:08;;;;;;;;;16.00;13.75;;;;;8.85;51.06;100074.97;5026209;28;45042;-69
2023/03/07 00:02:33;;;;;;;;;18.50;14.75;;;;;8.78;51.95;100065.06;5034589;28;45144;-70
2023/03/07 00:04:59;;;;;;;;;25.00;18.50;;;;;8.76;52.32;100065.03;5033724;28;45615;-69
2023/03/07 00:07:24;;;;;;;;;24.00;18.75;;;;;8.83;52.05;100079.38;5022719;28;45021;-70
2023/03/07 00:09:49;;;;;;;;;20.00;14.50;;;;;8.81;51.48;100084.66;5027939;28;45152;-70
2023/03/07 00:12:15;;;;;;;;;20.25;16.75;;;;;8.79;52.21;100083.75;5042266;28;45212;-69
2023/03/07 00:14:40;;;;;;;;;22.25;17.25;;;;;8.73;51.21;100064.03;5048615;28;45542;-68
2023/03/07 00:17:05;;;;;;;;;26.25;18.00;;;;;8.73;51.97;100064.94;5048912;28;45703;-70
2023/03/07 00:19:31;;;;;;;;;21.75;18.75;;;;;8.80;51.84;100077.53;5039122;28;45094;-68
2023/03/07 00:21:56;;;;;;;;;19.25;18.25;;;;;8.38;52.02;100001.13;5028050;28;44956;-70
2023/03/07 00:24:21;;;;;;;;;17.75;14.75;;;;;8.79;51.76;100077.50;5046046;28;45320;-72
2023/03/07 00:26:47;;;;;;;;;15.75;13.50;;;;;8.77;51.21;100071.25;5050563;28;45022;-70
2023/03/07 00:29:12;;;;;;;;;24.00;16.25;;;;;8.71;52.12;100081.75;5047638;28;45521;-69
2023/03/07 00:31:37;;;;;;;;;26.75;18.00;;;;;8.52;52.45;100052.03;5055122;28;44918;-68
2023/03/07 00:34:03;;;;;;;;;21.50;17.00;;;;;8.63;52.28;100069.16;5055305;28;45581;-71
2023/03/07 00:36:29;;;;;;;;;17.50;13.25;;;;;8.50;52.14;100043.13;5054651;28;45110;-70
2023/03/07 00:38:54;;;;;;;;;18.50;14.25;;;;;8.63;52.05;100063.84;5048008;28;45159;-67
2023/03/07 00:41:25;;;;;;;;;16.75;15.00;;;;;8.49;51.93;100038.66;5047187;28;45085;-68
2023/03/07 00:43:52;;;;;;;;;20.25;14.00;;;;;8.58;52.50;100053.94;5052337;28;45237;-68
2023/03/07 00:46:20;;;;;;;;;26.00;20.25;;;;;8.47;52.17;100041.28;5053462;28;45162;-68
2023/03/07 00:48:46;;;;;;;;;15.25;15.25;;;;;8.56;52.37;100048.56;5035162;28;45349;-68
2023/03/07 00:51:14;;;;;;;;;17.50;13.75;;;;;8.60;52.17;100046.91;5034800;28;45630;-69
2023/03/07 00:53:40;;;;;;;;;22.50;15.25;;;;;8.58;51.43;100044.19;5050480;28;45736;-68
2023/03/07 00:56:10;;;;;;;;;15.25;14.25;;;;;8.56;51.82;100040.56;5053449;28;45100;-67
2023/03/07 00:58:36;;;;;;;;;18.50;17.50;;;;;8.45;52.32;100023.50;5051001;28;45418;-69
2023/03/07 01:01:04;;;;;;;;;17.75;14.00;;;;;8.52;52.62;100035.19;5051292;28;44986;-68
2023/03/07 01:03:31;;;;;;;;;27.00;16.00;;;;;8.48;51.74;100035.09;5053982;28;45162;-68
2023/03/07 01:05:57;;;;;;;;;20.25;17.25;;;;;8.45;51.91;100018.16;5052312;28;45264;-68
2023/03/07 01:08:23;;;;;;;;;22.00;15.50;;;;;8.43;51.67;100020.78;5053035;28;45215;-68
2023/03/07 01:10:49;;;;;;;;;20.75;16.50;;;;;8.52;52.45;100030.75;5052951;28;45036;-68
2023/03/07 01:13:16;;;;;;;;;22.25;17.00;;;;;8.52;51.46;100019.19;5047338;28;45302;-67
2023/03/07 01:15:42;;;;;;;;;20.50;18.50;;;;;8.56;52.45;100013.06;5033650;28;45424;-69
2023/03/07 01:18:10;;;;;;;;;23.50;16.50;;;;;8.49;51.97;100006.69;5030300;28;45360;-68
2023/03/07 01:20:37;;;;;;;;;21.00;18.25;;;;;8.58;51.94;100014.00;5055634;28;45347;-70
2023/03/07 01:23:03;;;;;;;;;17.75;13.75;;;;;8.58;51.90;100011.31;5051408;28;45288;-69
2023/03/07 01:25:30;;;;;;;;;22.75;18.00;;;;;8.45;51.44;99989.78;5052486;28;45116;-70
2023/03/07 01:27:56;;;;;;;;;20.50;18.50;;;;;8.58;51.73;100006.94;5052508;28;45116;-68
2023/03/07 01:30:23;;;;;;;;;25.50;17.50;;;;;8.54;52.17;100002.38;5051943;28;45120;-68
2023/03/07 01:32:54;;;;;;;;;25.25;18.50;;;;;8.45;51.87;99994.22;5048795;28;45741;-69
2023/03/07 01:35:20;;;;;;;;;19.75;16.00;;;;;8.40;52.53;99988.72;5051967;28;45215;-68
2023/03/07 01:37:48;;;;;;;;;25.75;14.75;;;;;8.36;51.44;99984.19;5051680;28;45589;-68
2023/03/07 01:40:13;;;;;;;;;19.75;17.50;;;;;8.33;52.00;99969.91;5052009;28;45478;-69
2023/03/07 01:42:38;;;;;;;;;20.00;15.25;;;;;8.36;51.94;99977.97;5028369;28;47415;-68
2023/03/07 01:45:16;;;;;;;;;20.75;16.75;;;;;8.37;51.61;99982.44;5050860;28;45659;-68
2023/03/07 01:47:44;;;;;;;;;18.25;14.25;;;;;8.29;52.60;99971.63;5056624;28;45330;-68
2023/03/07 01:50:15;;;;;;;;;16.75;13.75;;;;;8.26;51.94;99956.47;5056145;28;45247;-68
2023/03/07 01:52:46;;;;;;;;;16.00;11.75;;;;;8.30;52.62;99963.66;5036132;28;46430;-68
2023/03/07 01:55:16;;;;;;;;;15.00;13.00;;;;;8.35;52.42;99962.84;5052793;28;45336;-69
2023/03/07 01:57:45;;;;;;;;;19.25;15.75;;;;;8.35;51.89;99963.78;5052464;28;45136;-69
2023/03/07 02:00:18;;;;;;;;;19.00;14.50;;;;;8.20;52.55;99942.13;5050415;28;45252;-69
2023/03/07 02:02:50;;;;;;;;;23.75;17.75;;;;;8.32;52.58;99962.81;5045129;28;45814;-70
2023/03/07 02:05:24;;;;;;;;;22.00;20.00;;;;;8.27;51.95;99946.75;5007708;28;45502;-69
2023/03/07 02:07:51;;;;;;;;;24.50;15.00;;;;;8.17;52.25;99931.44;5033748;28;45428;-70
2023/03/07 02:10:20;;;;;;;;;19.25;17.50;;;;;8.13;52.44;99922.47;5036663;28;45233;-69
2023/03/07 02:12:45;;;;;;;;;16.75;13.75;;;;;8.22;52.18;99936.00;5017635;28;48169;-69
2023/03/07 02:15:13;;;;;;;;;31.75;18.00;;;;;8.25;52.52;99927.16;5036432;28;45734;-67
2023/03/07 02:17:40;;;;;;;;;19.75;14.25;;;;;8.19;52.83;99925.28;5028805;28;45483;-67
2023/03/07 02:20:08;;;;;;;;;13.00;12.00;;;;;8.27;52.10;99934.31;5034713;28;45455;-68
2023/03/07 02:22:34;;;;;;;;;24.25;13.50;;;;;8.19;51.77;99927.94;5036023;28;45479;-69
2023/03/07 02:25:16;;;;;;;;;18.00;16.50;;;;;8.19;52.85;99927.94;5036624;28;46291;-70
2023/03/07 02:27:43;;;;;;;;;19.25;18.50;;;;;8.12;52.42;99918.03;5035908;28;45434;-68
2023/03/07 02:30:10;;;;;;;;;21.25;16.00;;;;;8.14;52.24;99916.28;5037297;28;45581;-69
2023/03/07 02:32:35;;;;;;;;;12.75;12.75;;;;;7.99;52.29;99894.66;5035542;28;46383;-71
2023/03/07 02:35:09;;;;;;;;;17.25;16.75;;;;;8.07;52.92;99899.28;5035840;28;45387;-67
2023/03/07 02:37:36;;;;;;;;;17.75;12.00;;;;;8.14;52.95;99916.28;5038380;28;45448;-70
2023/03/07 02:40:08;;;;;;;;;27.75;19.00;;;;;8.13;53.07;99914.47;5038976;28;45528;-72
2023/03/07 02:42:37;;;;;;;;;20.75;16.25;;;;;7.70;52.77;99833.72;5020211;28;47229;-70
2023/03/07 02:45:05;;;;;;;;;26.50;19.75;;;;;8.05;53.01;99901.03;5038321;28;45308;-69
2023/03/07 02:47:31;;;;;;;;;21.50;18.00;;;;;8.07;52.61;99899.28;5021832;28;45503;-70
2023/03/07 02:49:57;;;;;;;;;16.25;10.50;;;;;8.08;53.11;99897.50;5022747;28;45546;-69
2023/03/07 02:52:23;;;;;;;;;19.25;14.00;;;;;8.03;52.96;99891.19;5035615;28;46145;-70
2023/03/07 02:54:49;;;;;;;;;22.75;14.25;;;;;8.11;52.68;99897.59;5031713;28;45742;-69
2023/03/07 02:57:15;;;;;;;;;18.50;14.00;;;;;8.13;52.58;99898.50;5035312;28;45764;-69
2023/03/07 02:59:40;;;;;;;;;22.00;16.75;;;;;8.05;52.41;99890.38;5035885;28;45383;-68
2023/03/07 03:02:07;;;;;;;;;25.00;18.50;;;;;8.08;52.63;99889.53;5046724;28;47084;-69
2023/03/07 03:04:32;;;;;;;;;15.25;14.50;;;;;8.07;52.57;99882.44;5037490;28;45603;-70
2023/03/07 03:06:57;;;;;;;;;16.50;11.00;;;;;8.12;52.38;99894.06;5039861;28;45473;-68
2023/03/07 03:09:23;;;;;;;;;17.75;15.25;;;;;8.13;53.22;99890.53;5040116;28;45434;-68
2023/03/07 03:11:48;;;;;;;;;25.25;15.75;;;;;8.06;52.97;99870.00;5023515;28;48120;-68
2023/03/07 03:14:13;;;;;;;;;17.50;13.75;;;;;7.97;52.43;99845.84;5037137;28;45532;-68
2023/03/07 03:16:40;;;;;;;;;19.25;16.50;;;;;8.15;52.97;99862.22;5036569;28;45597;-69
2023/03/07 03:19:06;;;;;;;;;17.75;16.50;;;;;8.28;53.22;99876.66;5030283;28;45509;-69
2023/03/07 03:21:31;;;;;;;;;13.25;13.00;;;;;8.22;52.45;99861.47;5042590;28;46172;-69
2023/03/07 03:23:57;;;;;;;;;13.25;12.00;;;;;8.05;52.88;99831.84;5040257;28;45242;-69
2023/03/07 03:26:22;;;;;;;;;20.25;13.75;;;;;8.16;52.93;99856.03;5038454;28;45534;-69
2023/03/07 03:28:47;;;;;;;;;23.50;16.50;;;;;8.23;53.12;99873.00;5041001;28;45470;-68
2023/03/07 03:31:14;;;;;;;;;12.75;11.50;;;;;8.21;52.75;99857.00;5030347;28;47422;-68
2023/03/07 03:33:40;;;;;;;;;17.50;16.00;;;;;8.21;53.04;99857.00;5042761;28;45443;-69
2023/03/07 03:36:08;;;;;;;;;18.50;16.75;;;;;8.22;53.19;99864.13;5047559;28;45034;-69
2023/03/07 03:38:34;;;;;;;;;20.00;17.75;;;;;8.17;53.05;99857.81;5037619;28;45605;-68
2023/03/07 03:41:05;;;;;;;;;19.75;15.00;;;;;8.19;52.05;99861.41;5036019;28;45463;-69
2023/03/07 03:43:30;;;;;;;;;20.50;18.25;;;;;8.15;52.97;99843.59;5034653;28;45356;-70
2023/03/07 03:45:57;;;;;;;;;17.25;12.75;;;;;8.14;53.09;99847.13;5040008;28;45371;-68
2023/03/07 03:48:23;;;;;;;;;18.50;18.25;;;;;8.17;52.33;99848.97;5038689;28;45339;-71
2023/03/07 03:50:49;;;;;;;;;19.00;15.75;;;;;8.17;52.69;99852.50;5036894;28;45579;-69
2023/03/07 03:53:14;;;;;;;;;16.00;15.00;;;;;8.17;52.58;99849.84;5041374;28;45477;-67
2023/03/07 03:55:39;;;;;;;;;25.75;15.75;;;;;8.11;52.58;99837.28;5042802;28;45559;-68
2023/03/07 03:58:05;;;;;;;;;21.25;17.75;;;;;8.14;53.23;99848.88;5040561;28;45633;-69
2023/03/07 04:00:30;;;;;;;;;19.00;14.25;;;;;8.12;52.92;99835.53;5042624;28;50792;-69
2023/03/07 04:02:56;;;;;;;;;18.50;16.25;;;;;8.08;52.88;99831.00;5043347;28;45308;-67
2023/03/07 04:05:21;;;;;;;;;18.50;12.25;;;;;8.10;53.42;99837.25;5040806;28;45597;-69
2023/03/07 04:07:47;;;;;;;;;24.75;17.00;;;;;8.02;52.90;99821.16;5020384;28;45277;-70
2023/03/07 04:10:13;;;;;;;;;19.00;16.00;;;;;8.08;53.06;99825.69;5025485;28;45426;-68
2023/03/07 04:12:38;;;;;;;;;19.50;12.50;;;;;8.01;53.10;99813.13;5041811;28;45645;-69
2023/03/07 04:15:06;;;;;;;;;19.75;17.50;;;;;8.13;53.45;99832.00;5045697;28;45504;-68
2023/03/07 04:17:32;;;;;;;;;19.25;13.25;;;;;8.14;53.38;99825.81;5036973;28;45528;-71
2023/03/07 04:19:57;;;;;;;;;18.00;15.00;;;;;8.11;52.43;99831.09;5044080;28;45356;-70
2023/03/07 04:22:23;;;;;;;;;19.75;14.25;;;;;8.09;53.25;99832.81;5025332;28;45380;-69
2023/03/07 04:24:48;;;;;;;;;20.50;15.75;;;;;7.92;53.91;99808.53;5040938;28;45187;-69
2023/03/07 04:27:13;;;;;;;;;25.50;17.75;;;;;8.02;53.11;99825.56;5036171;28;45391;-69
2023/03/07 04:29:39;;;;;;;;;18.25;14.75;;;;;8.02;53.49;99831.78;5019020;28;47059;-67
2023/03/07 04:32:04;;;;;;;;;15.50;14.50;;;;;7.85;53.75;99807.50;5035905;28;56895;-69
2023/03/07 04:34:30;;;;;;;;;18.25;15.75;;;;;8.04;53.17;99829.16;5035575;28;45416;-70
2023/03/07 04:36:56;;;;;;;;;20.50;17.75;;;;;7.99;53.09;99813.09;5039817;28;45425;-69
2023/03/07 04:39:21;;;;;;;;;17.00;15.00;;;;;8.08;53.64;99823.03;5039339;28;45462;-68
2023/03/07 04:41:46;;;;;;;;;17.00;14.25;;;;;8.03;53.12;99814.06;5033969;28;45494;-69
2023/03/07 04:44:14;;;;;;;;;13.00;12.00;;;;;8.12;52.85;99820.47;5033657;28;51816;-70
2023/03/07 04:46:39;;;;;;;;;18.00;16.25;;;;;8.15;52.79;99809.00;5016798;28;45354;-71
2023/03/07 04:49:05;;;;;;;;;20.00;13.50;;;;;8.02;52.91;99788.31;5034199;28;46125;-69
2023/03/07 04:51:30;;;;;;;;;16.25;13.50;;;;;8.20;52.92;99809.09;5031657;28;45493;-69
2023/03/07 04:53:56;;;;;;;;;13.50;13.50;;;;;8.19;53.14;99816.19;5017870;28;45753;-68
2023/03/07 04:56:21;;;;;;;;;15.75;12.50;;;;;8.19;53.13;99807.31;5032993;28;45666;-69
2023/03/07 04:58:47;;;;;;;;;16.75;14.50;;;;;8.20;52.98;99798.44;5035003;28;46320;-69
2023/03/07 05:01:13;;;;;;;;;21.00;15.50;;;;;8.13;53.20;99786.78;5015676;28;45525;-69
2023/03/07 05:03:38;;;;;;;;;13.25;11.00;;;;;8.15;52.83;99801.03;5034268;28;45423;-69
2023/03/07 05:06:08;;;;;;;;;20.75;17.00;;;;;8.15;53.66;99805.44;5033169;28;45785;-68
2023/03/07 05:08:34;;;;;;;;;16.00;15.50;;;;;8.08;53.78;99788.44;5027834;28;45476;-69
2023/03/07 05:11:00;;;;;;;;;21.00;15.75;;;;;8.10;53.53;99800.00;5034855;28;45367;-70
2023/03/07 05:13:26;;;;;;;;;22.00;14.50;;;;;7.92;53.25;99779.28;5042081;28;45522;-69
2023/03/07 05:15:53;;;;;;;;;13.50;12.75;;;;;7.97;52.91;99777.59;5032203;28;45796;-69
2023/03/07 05:18:20;;;;;;;;;10.25;10.25;;;;;8.11;52.89;99800.03;5026487;28;46426;-69
2023/03/07 05:20:45;;;;;;;;;18.50;13.50;;;;;8.12;52.96;99806.28;5043662;28;45550;-69
2023/03/07 05:23:10;;;;;;;;;17.75;14.25;;;;;8.00;53.15;99785.66;5054756;28;45028;-69
2023/03/07 05:25:36;;;;;;;;;17.50;14.25;;;;;7.98;53.57;99779.38;5054890;28;44954;-70
2023/03/07 05:28:01;;;;;;;;;15.25;12.50;;;;;8.04;53.20;99800.78;5032547;28;46402;-69
2023/03/07 05:30:27;;;;;;;;;20.75;13.00;;;;;8.02;53.65;99794.56;5052245;28;45454;-69
2023/03/07 05:32:52;;;;;;;;;19.50;15.50;;;;;7.97;53.62;99782.91;5053962;28;44974;-69
2023/03/07 05:35:19;;;;;;;;;16.50;16.00;;;;;7.88;53.35;99778.28;5053214;28;45161;-69
2023/03/07 05:37:45;;;;;;;;;17.00;15.50;;;;;7.92;53.67;99789.91;5049382;28;45089;-70
2023/03/07 05:40:11;;;;;;;;;16.00;15.00;;;;;7.94;53.82;99794.38;5045620;28;45036;-68
2023/03/07 05:42:36;;;;;;;;;18.25;13.00;;;;;7.86;54.21;99779.13;5052419;28;45207;-68
2023/03/07 05:45:04;;;;;;;;;13.25;11.00;;;;;7.91;53.54;99781.00;5033772;28;45275;-67
2023/03/07 05:47:30;;;;;;;;;20.75;14.75;;;;;7.91;53.64;99786.31;5034856;28;46311;-70
2023/03/07 05:49:55;;;;;;;;;16.75;15.25;;;;;7.93;54.30;99781.03;5034075;28;45312;-69
2023/03/07 05:52:21;;;;;;;;;19.75;15.00;;;;;7.88;53.49;99774.72;5020488;28;45412;-69
2023/03/07 05:54:46;;;;;;;;;14.25;13.00;;;;;7.90;54.42;99780.97;5048796;28;45051;-69
2023/03/07 05:57:12;;;;;;;;;17.25;11.00;;;;;7.88;54.17;99770.31;5052285;28;45347;-68
2023/03/07 05:59:38;;;;;;;;;18.50;16.00;;;;;7.84;54.55;99775.53;5032803;28;45355;-67
2023/03/07 06:02:03;;;;;;;;;15.75;12.00;;;;;7.70;54.29;99733.56;5051811;28;49548;-69
2023/03/07 06:04:28;;;;;;;;;14.25;14.25;;;;;7.90;54.03;99768.59;5033298;28;45411;-68
2023/03/07 06:06:54;;;;;;;;;21.50;16.25;;;;;7.94;53.76;99759.81;5030253;28;46988;-70
2023/03/07 06:09:21;;;;;;;;;24.50;18.25;;;;;8.03;53.81;99766.19;5053565;28;51906;-69
2023/03/07 06:11:46;;;;;;;;;17.50;10.75;;;;;8.03;53.29;99764.41;5046011;28;45330;-69
2023/03/07 06:14:11;;;;;;;;;13.25;13.00;;;;;8.07;54.16;99770.72;5053304;28;45122;-69
2023/03/07 06:16:37;;;;;;;;;17.25;12.25;;;;;8.02;53.77;99757.31;5033856;28;46468;-69
2023/03/07 06:19:02;;;;;;;;;30.75;22.75;;;;;8.11;53.53;99777.88;5049925;28;45343;-68
2023/03/07 06:21:27;;;;;;;;;25.25;21.00;;;;;8.07;54.33;99760.06;5054631;28;45471;-68
2023/03/07 06:23:56;;;;;;;;;26.00;16.25;;;;;8.12;53.41;99761.94;5050135;28;45188;-68
2023/03/07 06:26:21;;;;;;;;;16.75;13.25;;;;;8.09;53.86;99761.00;5040519;28;45293;-69
2023/03/07 06:28:47;;;;;;;;;18.50;15.50;;;;;8.16;53.86;99772.66;5047100;28;45013;-69
2023/03/07 06:31:15;;;;;;;;;20.25;16.25;;;;;8.15;53.56;99765.53;5029053;28;45109;-69
2023/03/07 06:33:41;;;;;;;;;16.50;13.25;;;;;8.13;54.24;99773.47;5050924;28;45272;-68
2023/03/07 06:36:09;;;;;;;;;17.75;15.00;;;;;8.07;54.07;99760.97;5052644;28;45942;-69
2023/03/07 06:38:34;;;;;;;;;19.75;17.00;;;;;8.10;53.77;99760.09;5050749;28;45133;-71
2023/03/07 06:41:00;;;;;;;;;16.00;13.75;;;;;8.01;53.49;99757.28;5051036;28;45220;-70
2023/03/07 06:43:26;;;;;;;;;17.50;16.00;;;;;8.06;54.19;99763.59;5053165;28;44961;-69
2023/03/07 06:45:51;;;;;;;;;18.50;15.50;;;;;8.10;54.29;99762.75;5052383;28;45834;-70
2023/03/07 06:48:17;;;;;;;;;22.50;15.75;;;;;8.02;53.77;99743.09;5047859;28;45079;-70
2023/03/07 06:50:43;;;;;;;;;20.25;13.50;;;;;8.07;53.79;99755.63;5048368;28;45148;-68
2023/03/07 06:53:09;;;;;;;;;20.75;14.00;;;;;8.07;53.27;99763.63;5045039;28;44958;-69
2023/03/07 06:55:34;;;;;;;;;14.50;12.00;;;;;8.05;54.02;99761.78;5051404;28;45240;-70
2023/03/07 06:57:59;;;;;;;;;23.00;16.25;;;;;7.97;53.87;99751.00;5048234;28;45150;-70
2023/03/07 07:00:25;;;;;;;;;16.25;13.75;;;;;8.03;54.22;99767.06;5049835;28;44810;-69
2023/03/07 07:02:52;;;;;;;;;17.50;13.25;;;;;8.04;54.37;99760.88;5051883;28;45024;-70
2023/03/07 07:05:17;;;;;;;;;17.00;11.50;;;;;8.05;54.47;99764.44;5048630;28;45229;-69
2023/03/07 07:07:43;;;;;;;;;21.75;19.25;;;;;8.08;53.74;99768.09;5046568;28;45388;-70
2023/03/07 07:10:09;;;;;;;;;17.00;15.00;;;;;8.10;53.84;99763.69;5019325;28;45458;-70
2023/03/07 07:12:34;;;;;;;;;21.00;14.50;;;;;8.04;53.66;99760.00;5029565;28;45547;-71
2023/03/07 07:15:04;;;;;;;;;11.50;10.50;;;;;8.11;54.25;99769.91;5013174;28;46096;-71
2023/03/07 07:17:30;;;;;;;;;16.00;16.00;;;;;8.12;54.31;99777.91;5035785;28;45312;-70
2023/03/07 07:19:55;;;;;;;;;21.00;15.75;;;;;8.12;53.77;99774.34;5033815;28;45248;-68
2023/03/07 07:22:22;;;;;;;;;19.00;14.75;;;;;7.52;53.49;99672.06;5031454;28;45774;-70
2023/03/07 07:24:47;;;;;;;;;17.00;16.50;;;;;8.13;54.46;99781.44;5032544;28;45530;-69
2023/03/07 07:27:14;;;;;;;;;20.75;18.00;;;;;8.17;54.18;99786.00;5015689;28;45692;-69
2023/03/07 07:29:39;;;;;;;;;19.00;16.50;;;;;8.20;53.77;99767.44;5036645;28;45477;-69
2023/03/07 07:32:05;;;;;;;;;14.00;14.00;;;;;8.17;53.32;99775.34;5035572;28;45518;-70
2023/03/07 07:34:31;;;;;;;;;18.00;16.75;;;;;8.20;54.04;99774.50;5029413;28;45835;-71
2023/03/07 07:36:56;;;;;;;;;15.50;14.00;;;;;8.20;53.33;99778.06;5013249;28;45828;-68
2023/03/07 07:39:23;;;;;;;;;18.50;17.00;;;;;8.10;52.97;99758.38;5007159;28;45416;-71
2023/03/07 07:41:48;;;;;;;;;21.25;16.75;;;;;8.15;53.03;99757.53;5035202;28;45711;-69
2023/03/07 07:44:14;;;;;;;;;18.75;14.00;;;;;8.20;53.15;99763.84;5035604;28;45473;-71
2023/03/07 07:46:39;;;;;;;;;21.75;14.00;;;;;8.20;53.14;99764.78;5035804;28;45503;-71
2023/03/07 07:49:04;;;;;;;;;15.25;13.25;;;;;8.23;53.12;99764.84;5037005;28;46425;-69
2023/03/07 07:51:30;;;;;;;;;15.25;12.75;;;;;8.19;52.86;99749.66;5036973;28;45507;-72
2023/03/07 07:53:56;;;;;;;;;14.50;12.00;;;;;8.30;52.79;99764.06;5036522;28;45439;-70
2023/03/07 07:56:22;;;;;;;;;12.75;11.50;;;;;8.36;52.96;99763.28;5033385;28;45696;-71
2023/03/07 07:58:47;;;;;;;;;17.25;14.50;;;;;8.30;53.16;99750.78;5037368;28;45304;-70
2023/03/07 08:01:14;;;;;;;;;13.25;13.25;;;;;8.41;53.48;99771.38;5039426;28;45385;-69
2023/03/07 08:03:39;;;;;;;;;11.50;11.00;;;;;8.41;53.05;99777.56;5038048;28;45543;-70
2023/03/07 08:06:05;;;;;;;;;15.25;12.75;;;;;8.40;52.59;99780.25;5019048;28;45408;-69
2023/03/07 08:08:30;;;;;;;;;12.25;11.75;;;;;8.49;52.65;99780.44;5036866;28;45554;-70
2023/03/07 08:10:55;;;;;;;;;16.00;14.25;;;;;8.47;52.99;99777.72;5036443;28;45304;-70
2023/03/07 08:13:21;;;;;;;;;19.00;15.50;;;;;8.49;52.47;99770.66;5034838;28;45434;-71
2023/03/07 08:15:46;;;;;;;;;17.75;13.50;;;;;8.54;52.34;99777.84;5034870;28;55559;-70
2023/03/07 08:18:11;;;;;;;;;15.25;12.00;;;;;8.46;52.23;99780.38;5032315;28;45619;-70
2023/03/07 08:20:37;;;;;;;;;17.25;12.50;;;;;8.46;53.28;99781.28;5030527;28;45289;-70
2023/03/07 08:23:03;;;;;;;;;17.00;13.00;;;;;8.48;53.44;99783.97;5037251;28;45509;-71
2023/03/07 08:25:29;;;;;;;;;17.25;15.75;;;;;8.45;52.85;99776.81;5037675;28;45418;-69
2023/03/07 08:27:55;;;;;;;;;15.25;14.75;;;;;8.51;52.72;99772.47;5036931;28;45407;-70
2023/03/07 08:30:29;;;;;;;;;10.25;9.00;;;;;8.55;53.04;99782.34;5030497;28;45419;-69
2023/03/07 08:32:55;;;;;;;;;14.25;11.00;;;;;8.48;51.97;99766.22;5031061;28;46138;-70
2023/03/07 08:35:22;;;;;;;;;22.00;12.50;;;;;8.56;52.79;99785.00;5015410;28;45574;-69
2023/03/07 08:37:50;;;;;;;;;26.00;14.25;;;;;8.38;52.02;99763.31;5034834;28;45539;-69
2023/03/07 08:40:15;;;;;;;;;14.25;9.50;;;;;8.52;52.44;99780.50;5042138;28;45626;-70
2023/03/07 08:42:41;;;;;;;;;16.00;13.00;;;;;8.32;53.20;99749.91;5035210;28;45950;-69
2023/03/07 08:45:08;;;;;;;;;14.25;14.00;;;;;8.51;52.85;99777.81;5037468;28;45584;-70
2023/03/07 08:47:33;;;;;;;;;21.00;17.00;;;;;8.54;53.04;99776.09;5032770;28;45442;-70
2023/03/07 08:49:59;;;;;;;;;11.75;9.50;;;;;8.57;52.92;99777.94;5033386;28;45590;-70
2023/03/07 08:52:24;;;;;;;;;12.25;10.25;;;;;8.58;52.25;99777.03;5039003;28;45356;-70
2023/03/07 08:54:49;;;;;;;;;14.25;12.00;;;;;8.60;52.53;99770.88;5039578;28;45310;-70
2023/03/07 08:57:15;;;;;;;;;18.75;11.25;;;;;8.58;52.00;99767.31;5039349;28;45430;-69
2023/03/07 08:59:40;;;;;;;;;37.75;22.25;;;;;8.67;52.67;99775.44;5038173;28;45272;-69
2023/03/07 09:02:06;;;;;;;;;17.50;13.75;;;;;8.69;52.83;99753.28;5037111;28;45775;-70
2023/03/07 09:04:31;;;;;;;;;14.00;11.50;;;;;8.74;52.13;99772.91;5018883;28;45478;-70
2023/03/07 09:06:57;;;;;;;;;17.50;14.25;;;;;8.78;52.22;99783.63;5019269;28;45503;-69
2023/03/07 09:09:23;;;;;;;;;17.75;11.75;;;;;8.76;52.80;99763.16;5036711;28;45628;-69
2023/03/07 09:11:48;;;;;;;;;14.75;12.00;;;;;8.75;52.39;99756.94;5036086;28;54417;-70
2023/03/07 09:14:14;;;;;;;;;20.00;16.25;;;;;8.82;51.70;99763.28;5025609;28;45507;-71
2023/03/07 09:16:42;;;;;;;;;19.25;14.75;;;;;8.90;52.12;99766.97;5038625;28;45782;-69
2023/03/07 09:19:07;;;;;;;;;19.25;12.00;;;;;8.83;51.23;99759.75;5037470;28;45473;-70
2023/03/07 09:21:33;;;;;;;;;12.00;12.00;;;;;8.85;52.37;99777.53;5036845;28;46735;-70
2023/03/07 09:23:58;;;;;;;;;14.00;13.00;;;;;8.79;51.36;99749.91;5018791;28;45639;-70
2023/03/07 09:26:23;;;;;;;;;12.50;11.25;;;;;8.92;51.61;99759.91;5037035;28;45465;-69
2023/03/07 09:28:50;;;;;;;;;17.00;13.25;;;;;8.94;50.87;99755.53;5034941;28;46059;-69
2023/03/07 09:31:15;;;;;;;;;15.00;10.50;;;;;8.91;51.28;99755.47;5035596;28;46391;-69
2023/03/07 09:33:41;;;;;;;;;19.25;13.25;;;;;8.57;50.86;99698.94;5036381;28;45434;-69
2023/03/07 09:36:09;;;;;;;;;11.50;10.75;;;;;8.98;51.50;99749.34;5034199;28;45505;-69
2023/03/07 09:38:35;;;;;;;;;15.00;12.50;;;;;9.00;50.96;99736.94;5036419;28;45554;-69
2023/03/07 09:41:39;;;;;;;;;13.25;12.25;;;;;9.26;51.29;99756.91;5036335;28;46175;-70
2023/03/07 09:44:42;;;;;;;;;14.25;10.25;;;;;9.33;50.80;99761.44;5036372;28;45397;-70
2023/03/07 09:47:13;;;;;;;;;11.50;10.75;;;;;9.38;50.61;99765.97;5018912;28;45360;-69
2023/03/07 09:49:45;;;;;;;;;27.50;25.00;;;;;9.39;50.94;99759.78;5036535;28;45739;-70
2023/03/07 09:52:15;;;;;;;;;21.00;18.50;;;;;9.50;49.89;99759.03;5035352;28;47133;-69
2023/03/07 09:55:02;;;;;;;;;20.00;18.25;;;;;9.54;49.97;99755.56;5018842;28;45599;-68
2023/03/07 09:57:30;;;;;;;;;15.75;14.00;;;;;9.54;49.66;99742.22;5033835;28;45438;-71
2023/03/07 09:59:59;;;;;;;;;15.00;12.00;;;;;9.54;50.09;99728.88;5018489;28;45555;-69
2023/03/07 10:02:36;;;;;;;;;17.25;15.25;;;;;9.61;49.57;99730.75;5035714;28;46341;-68
2023/03/07 10:05:07;;;;;;;;;14.25;11.75;;;;;9.73;49.88;99736.28;5034090;28;46531;-72
2023/03/07 10:07:34;;;;;;;;;17.00;11.00;;;;;9.73;49.37;99727.34;5035826;28;45488;-70
2023/03/07 10:10:04;;;;;;;;;14.50;12.25;;;;;9.84;49.39;99732.84;5035745;28;45412;-70
2023/03/07 10:12:59;;;;;;;;;14.75;14.75;;;;;9.86;49.58;99729.28;5035580;28;46094;-70
2023/03/07 10:15:41;;;;;;;;;16.50;13.25;;;;;9.90;48.82;99717.81;5035378;28;45510;-71
2023/03/07 10:18:31;;;;;;;;;12.25;11.50;;;;;9.92;48.39;99725.81;5019387;28;45479;-69
2023/03/07 10:21:21;;;;;;;;;19.75;14.50;;;;;9.95;48.38;99723.19;5032596;28;45324;-69
2023/03/07 10:24:24;;;;;;;;;16.75;14.25;;;;;10.00;48.56;99716.16;5036428;28;46808;-71
2023/03/07 10:26:58;;;;;;;;;11.75;10.00;;;;;10.03;48.32;99696.59;5037048;28;45489;-71
2023/03/07 10:29:29;;;;;;;;;13.00;12.50;;;;;10.22;47.84;99703.03;5037550;28;45507;-70
2023/03/07 10:32:14;;;;;;;;;18.00;13.75;;;;;10.27;47.64;99706.66;5035683;28;45506;-70
2023/03/07 10:34:40;;;;;;;;;13.50;13.50;;;;;10.27;47.62;99693.31;5035927;28;46503;-70
2023/03/07 10:37:14;;;;;;;;;21.25;15.25;;;;;10.30;47.89;99704.91;5035015;28;45493;-69
2023/03/07 10:39:51;;;;;;;;;21.00;17.00;;;;;10.28;47.88;99679.09;5035207;28;45425;-70
2023/03/07 10:42:19;;;;;;;;;15.00;12.50;;;;;10.39;47.31;99692.56;5035543;28;45466;-70
2023/03/07 10:44:47;;;;;;;;;15.75;14.00;;;;;10.39;47.69;99693.44;5033609;28;46384;-71
2023/03/07 10:47:19;;;;;;;;;14.75;10.75;;;;;10.42;46.98;99688.16;5035557;28;45741;-70
2023/03/07 10:49:47;;;;;;;;;12.50;11.25;;;;;10.54;47.01;99689.16;5035405;28;45553;-71
2023/03/07 10:52:39;;;;;;;;;15.00;13.00;;;;;10.58;46.66;99694.53;5017180;28;45474;-69
2023/03/07 10:55:32;;;;;;;;;13.00;13.00;;;;;10.61;46.92;99690.97;5034004;28;45572;-69
2023/03/07 10:58:21;;;;;;;;;12.50;11.75;;;;;10.60;46.19;99683.88;5016955;28;45419;-69
2023/03/07 11:01:07;;;;;;;;;15.75;12.75;;;;;10.55;46.37;99680.28;5016835;28;45607;-67
2023/03/07 11:03:39;;;;;;;;;16.25;13.50;;;;;10.54;46.37;99681.13;5019059;28;45947;-69
2023/03/07 11:06:05;;;;;;;;;16.50;12.75;;;;;10.50;46.02;99681.09;5016829;28;47392;-66
2023/03/07 11:08:34;;;;;;;;;10.75;8.50;;;;;10.58;46.29;99681.19;5017990;28;45502;-67
2023/03/07 11:11:01;;;;;;;;;15.50;12.50;;;;;10.60;45.91;99679.41;5029421;28;45450;-67
2023/03/07 11:13:28;;;;;;;;;19.00;14.00;;;;;10.63;45.61;99673.22;5029370;28;45430;-66
2023/03/07 11:16:18;;;;;;;;;17.25;13.25;;;;;10.62;45.07;99685.66;5034207;28;46059;-67
2023/03/07 11:18:44;;;;;;;;;17.25;12.00;;;;;10.65;44.89;99676.78;5032847;28;45546;-67
2023/03/07 11:21:33;;;;;;;;;17.00;13.00;;;;;10.82;44.78;99676.91;5035425;28;45378;-67
2023/03/07 11:24:05;;;;;;;;;20.00;16.75;;;;;10.93;44.58;99683.25;5015361;28;45902;-67
2023/03/07 11:26:39;;;;;;;;;9.50;7.50;;;;;11.09;44.37;99678.94;5031949;28;45580;-67